createdAt,value
2019-06-15T06:03:57.174Z,17.50
2019-06-15T06:06:36.162Z,17.40
2019-06-15T06:13:15.413Z,17.40
2019-06-15T06:34:16.580Z,17.70
2019-06-15T06:40:48.227Z,17.80
2019-06-15T06:43:33.305Z,17.80
2019-06-15T06:46:30.092Z,17.90
2019-06-15T06:49:46.981Z,17.90
2019-06-15T06:53:25.101Z,18.00
2019-06-15T07:27:42.486Z,20.30
2019-06-15T07:30:27.540Z,20.50
2019-06-15T07:32:51.506Z,20.70
2019-06-15T07:35:46.151Z,20.90
2019-06-15T07:38:51.853Z,21.10
2019-06-15T07:41:27.245Z,21.20
2019-06-15T07:45:16.029Z,21.30
2019-06-15T07:52:12.747Z,21.10
2019-06-15T07:55:19.443Z,21.50
2019-06-15T07:58:25.050Z,22.20
2019-06-15T08:01:25.834Z,22.30
2019-06-15T08:37:41.246Z,21.10
2019-06-15T09:19:58.395Z,18.80
2019-06-15T09:22:39.846Z,18.80
2019-06-15T09:25:36.763Z,18.70
2019-06-15T09:28:11.059Z,18.60
2019-06-15T09:31:05.494Z,18.60
2019-06-15T09:33:56.490Z,18.60
2019-06-15T09:36:31.905Z,18.70
2019-06-15T09:39:20.625Z,18.80
2019-06-15T09:42:01.216Z,19.00
2019-06-15T09:44:46.542Z,19.30
2019-06-15T09:47:32.039Z,19.80
2019-06-15T09:50:11.406Z,20.00
2019-06-15T09:52:58.296Z,20.10
2019-06-15T09:55:43.774Z,20.60
2019-06-15T13:34:02.363Z,28.90
2019-06-15T13:36:47.802Z,27.80
2019-06-15T13:39:49.929Z,26.60
2019-06-15T13:42:24.508Z,25.90
2019-06-15T13:45:15.213Z,25.50
2019-06-15T13:51:48.206Z,25.60
2019-06-15T13:54:56.527Z,27.30
2019-06-15T13:57:16.577Z,28.60
2019-06-15T14:00:00.459Z,29.50
2019-06-15T14:02:35.341Z,30.30
2019-06-15T14:05:13.535Z,30.50
2019-06-15T14:07:54.157Z,30.10
2019-06-15T14:10:25.249Z,29.60
2019-06-15T14:13:00.463Z,28.90
2019-06-15T14:15:37.563Z,28.60
2019-06-15T14:18:06.618Z,28.10
2019-06-15T14:20:40.164Z,27.10
2019-06-15T14:23:14.310Z,26.20
2019-06-15T14:25:48.274Z,25.30
2019-06-15T14:28:22.415Z,24.90
2019-06-15T14:30:55.844Z,25.60
2019-06-15T14:33:35.174Z,26.80
2019-06-15T14:36:16.436Z,27.20
2019-06-15T14:38:50.696Z,27.00
2019-06-15T14:41:41.662Z,26.50
2019-06-15T14:44:11.292Z,26.30
2019-06-15T14:47:09.752Z,26.30
2019-06-15T14:49:44.793Z,26.20
2019-06-15T14:52:29.423Z,26.70
2019-06-15T14:55:36.655Z,28.00
2019-06-15T14:57:45.096Z,29.30
2019-06-15T15:00:25.394Z,30.90
2019-06-15T15:03:07.431Z,30.70
2019-06-15T15:05:42.499Z,30.00
2019-06-15T15:08:16.972Z,28.10
2019-06-15T15:10:58.026Z,27.00
2019-06-15T15:13:33.111Z,27.10
2019-06-15T15:16:08.094Z,27.90
2019-06-15T15:18:50.296Z,27.90
2019-06-15T15:21:21.289Z,27.20
2019-06-15T15:23:57.090Z,27.00
2019-06-15T15:26:40.916Z,27.20
2019-06-15T15:29:19.385Z,28.00
2019-06-15T15:31:52.771Z,28.30
2019-06-15T15:34:31.333Z,27.60
2019-06-15T15:37:03.820Z,27.40
2019-06-15T15:39:43.708Z,26.80
2019-06-15T15:42:23.112Z,26.40
2019-06-15T15:45:07.130Z,26.00
2019-06-15T15:47:39.274Z,26.20
2019-06-15T15:50:17.626Z,26.00
2019-06-15T15:53:04.410Z,25.80
2019-06-15T15:56:08.401Z,25.70
2019-06-15T15:58:42.278Z,25.70
2019-06-15T16:01:20.033Z,26.20
2019-06-15T16:03:52.888Z,26.80
2019-06-15T16:06:29.922Z,28.60
2019-06-15T16:09:10.049Z,29.80
2019-06-15T16:11:46.255Z,30.60
2019-06-15T16:14:18.511Z,30.60
2019-06-15T16:16:55.853Z,30.70
2019-06-15T16:19:31.487Z,31.10
2019-06-15T16:22:05.310Z,31.20
2019-06-15T16:24:38.671Z,30.30
2019-06-15T16:27:11.761Z,29.90
2019-06-15T16:29:48.223Z,30.20
2019-06-15T16:32:21.255Z,30.80
2019-06-15T16:35:29.452Z,29.70
2019-06-15T16:38:07.838Z,28.70
2019-06-15T16:40:56.070Z,27.60
2019-06-15T16:44:20.639Z,27.60
2019-06-15T16:50:59.046Z,29.70
2019-06-15T16:53:47.971Z,30.30
2019-06-15T16:57:52.494Z,30.00
2019-06-15T17:00:10.354Z,29.50
2019-06-15T17:32:46.439Z,27.50
2019-06-15T18:47:07.509Z,23.30
2019-06-15T18:50:21.337Z,23.20
2019-06-15T18:59:59.035Z,22.70
2019-06-15T19:06:02.853Z,22.40
2019-06-15T19:12:35.771Z,22.10
2019-06-15T19:15:11.203Z,21.90
2019-06-15T20:00:46.953Z,19.40
2019-06-15T20:03:20.847Z,19.30
2019-06-15T20:06:09.400Z,19.10
2019-06-15T20:09:20.103Z,18.90
2019-06-15T20:11:56.085Z,18.70
2019-06-15T20:14:33.049Z,18.60
2019-06-15T20:17:07.646Z,18.40
2019-06-15T20:19:39.321Z,18.30
2019-06-15T20:22:19.063Z,18.30
2019-06-15T20:24:56.422Z,18.20
2019-06-15T20:27:31.593Z,18.00
2019-06-15T20:33:12.310Z,17.70
2019-06-15T20:59:56.341Z,16.90
2019-06-15T21:02:36.019Z,16.90
2019-06-15T21:08:43.823Z,16.70
2019-06-15T21:11:18.964Z,16.70
2019-06-15T21:14:14.923Z,16.80
2019-06-15T21:17:24.673Z,16.90
2019-06-15T21:20:32.687Z,16.90
2019-06-15T21:26:43.974Z,17.00
2019-06-15T21:29:18.606Z,17.10
2019-06-15T21:31:50.012Z,17.40
2019-06-15T21:34:20.928Z,17.50
2019-06-15T21:36:51.965Z,17.50
2019-06-15T21:39:26.568Z,17.60
2019-06-15T21:42:01.016Z,17.70
2019-06-15T21:44:37.051Z,17.70
2019-06-15T21:47:17.653Z,17.60
2019-06-15T21:49:56.006Z,17.40
2019-06-15T21:52:36.412Z,17.20
2019-06-15T21:55:36.312Z,17.10
2019-06-15T21:58:10.110Z,16.90
2019-06-15T22:22:58.440Z,16.20
2019-06-15T22:25:35.978Z,16.10
2019-06-15T22:28:10.507Z,16.00
2019-06-15T22:31:00.174Z,16.00
2019-06-15T22:33:41.265Z,15.90
2019-06-15T22:36:22.218Z,15.80
2019-06-15T22:42:19.289Z,15.80
2019-06-15T22:45:20.997Z,15.80
2019-06-15T22:47:58.003Z,15.90
2019-06-15T22:50:30.779Z,16.00
2019-06-15T22:53:07.477Z,16.00
2019-06-15T22:55:46.242Z,16.00
2019-06-15T22:58:26.877Z,16.00
2019-06-15T23:01:01.216Z,16.10
2019-06-15T23:03:33.483Z,16.10
2019-06-15T23:33:33.493Z,16.20
2019-06-15T23:36:12.627Z,16.20
2019-06-15T23:38:47.258Z,16.20
2019-06-15T23:41:24.240Z,16.20
2019-06-15T23:44:04.314Z,16.10
